Flight Track Log - Related Links

Times and Time Zones

All times are in EDT time to prevent confusion due to time zone crossing. See the FLG4306 flight status page for this flight to view local times or setup timezone preferences in your user account.

Time Position Orientation Groundspeed Altitude Reporting Facility
EDT Latitude Longitude Course Direction KTS MPH feet Rate Location/Type
Wed 02:13:05 PM 44.9028 -93.2428 351° North 181 208 1,700  Level FAA TRACON SMA TRACON (SMA)
Wed 02:14:06 PM 44.9531 -93.2544 33° Northeast 207 238 3,400 2,020 Climbing FAA TRACON SMA TRACON (SMA)
Wed 02:14:46 PM 44.9883 -93.2217 63° Northeast 231 266 5,100 2,354 Climbing FAA TRACON SMA TRACON (SMA)
Wed 02:15:25 PM 45.0108 -93.1592 65° Northeast 265 305 6,500 2,203 Climbing FAA TRACON SMA TRACON (SMA)
Wed 02:16:05 PM 45.0308 -93.0997 64° Northeast 275 316 8,000 2,475 Climbing FAA TRACON SMA TRACON (SMA)
Wed 02:16:45 PM 45.0550 -93.0306 64° Northeast 286 329 9,800 1,800 Climbing FAA TRACON SMA TRACON (SMA)
Wed 02:18:55 PM 45.1356 -92.7944 64° Northeast 308 354 13,100 1,421 Climbing Minneapolis Center
Wed 02:19:55 PM 45.1806 -92.6617 64° Northeast 344 396 14,300 1,306 Climbing Minneapolis Center
Wed 02:20:59 PM 45.2306 -92.5167 64° Northeast 384 442 15,800 1,351 Climbing FAA TRACON SMA TRACON (SMA)
Wed 02:21:46 PM 45.2669 -92.4108 73° East 389 448 16,800 1,153 Climbing FAA TRACON SMA TRACON (SMA)
Wed 02:24:22 PM 45.3500 -92.0150 81° East 415 478 19,700 1,011 Climbing FAA TRACON SMA TRACON (SMA)
Wed 02:26:07 PM 45.3808 -91.7308 78° East 416 479 21,200 873 Climbing Minneapolis Center
Wed 02:27:07 PM 45.4053 -91.5675 79° East 421 484 22,100 800 Climbing Minneapolis Center
Wed 02:28:07 PM 45.4272 -91.4011 79° East 421 484 22,800 650 Climbing Minneapolis Center
Wed 02:29:07 PM 45.4475 -91.2494 82° East 421 484 23,400 700 Climbing Minneapolis Center
Wed 02:30:07 PM 45.4647 -91.0769 103° East 431 496 24,200 700 Climbing Minneapolis Center
Wed 02:31:07 PM 45.4361 -90.9008 114° Southeast 431 496 24,800 605 Climbing Minneapolis Center
Wed 02:32:06 PM 45.3842 -90.7344 113° Southeast 438 504 25,400 550 Climbing Minneapolis Center
Wed 02:33:07 PM 45.3342 -90.5656 115° Southeast 451 519 25,900 496 Climbing Minneapolis Center
Wed 02:34:07 PM 45.2778 -90.3944 113° Southeast 465 535 26,400 500 Climbing Minneapolis Center
Wed 02:35:07 PM 45.2250 -90.2203 115° Southeast 471 542 26,900 500 Climbing Minneapolis Center
Wed 02:36:07 PM 45.1700 -90.0497 115° Southeast 471 542 27,400 500 Climbing Minneapolis Center
Wed 02:37:07 PM 45.1147 -89.8794 114° Southeast 476 548 27,900 550 Climbing Minneapolis Center
Wed 02:38:07 PM 45.0542 -89.6861 114° Southeast 476 548 28,500 504 Climbing Minneapolis Center
Wed 02:39:06 PM 45.0053 -89.5336 115° Southeast 476 548 28,900 450 Climbing Minneapolis Center
Wed 02:40:07 PM 44.9492 -89.3614 115° Southeast 476 548 29,400 496 Climbing Minneapolis Center
Wed 02:41:07 PM 44.8928 -89.1897 115° Southeast 483 556 29,900 504 Climbing Minneapolis Center
Wed 02:42:06 PM 44.8339 -89.0153 115° Southeast 483 556 30,400 550 Climbing Minneapolis Center
Wed 02:43:07 PM 44.7769 -88.8442 116° Southeast 478 550 31,000 300 Climbing Minneapolis Center
Wed 02:44:06 PM 44.7178 -88.6736 115° Southeast 484 557 31,000  Level Minneapolis Center
Wed 02:45:07 PM 44.6578 -88.4917 116° Southeast 498 573 31,000  Level Minneapolis Center
Wed 02:46:06 PM 44.5981 -88.3189 118° Southeast 498 573 31,000  Level Minneapolis Center
Wed 02:47:07 PM 44.5292 -88.1383 123° Southeast 505 581 31,000  Level Minneapolis Center
Wed 02:48:07 PM 44.4522 -87.9708 123° Southeast 515 593 31,000  Level Minneapolis Center
Wed 02:49:07 PM 44.3706 -87.7983 122° Southeast 524 603 31,000  Level Minneapolis Center
Wed 02:50:07 PM 44.2908 -87.6233 125° Southeast 531 611 31,000  Level Minneapolis Center
Wed 02:51:07 PM 44.1997 -87.4411 123° Southeast 525 604 31,000  Level Minneapolis Center
Wed 02:52:07 PM 44.1175 -87.2672 123° Southeast 530 610 31,000  Level Minneapolis Center
Wed 02:54:06 PM 43.9656 -86.9478 124° Southeast 558 642 31,000  Level Chicago Center
Wed 02:55:06 PM 43.8828 -86.7753 124° Southeast 553 636 31,000  Level Chicago Center
Wed 02:56:06 PM 43.7994 -86.6033 124° Southeast 542 624 31,000 -750 Level Chicago Center
Wed 02:57:06 PM 43.7161 -86.4319 124° Southeast 542 624 29,500 -1,650 Descending Chicago Center
Wed 02:58:06 PM 43.6347 -86.2636 124° Southeast 542 624 27,700 -2,250 Descending Chicago Center
Wed 02:59:06 PM 43.5575 -86.1069 125° Southeast 522 601 25,000 -2,700 Descending Chicago Center
Wed 03:00:06 PM 43.4736 -85.9428 125° Southeast 495 570 22,300 -2,650 Descending Chicago Center
Wed 03:01:06 PM 43.4025 -85.8008 124° Southeast 466 536 19,700 -2,600 Descending Chicago Center
Wed 03:02:06 PM 43.3358 -85.6675 125° Southeast 445 512 17,100 -2,650 Descending Chicago Center
Wed 03:03:06 PM 43.2714 -85.5403 125° Southeast 423 487 14,400 -2,100 Descending Chicago Center
Wed 03:04:06 PM 43.2222 -85.4436 126° Southeast 407 468 12,900 -1,650 Descending Chicago Center
Wed 03:05:06 PM 43.1575 -85.3194 125° Southeast 382 440 11,100 -1,450 Descending Chicago Center
Wed 03:06:06 PM 43.1017 -85.2122 125° Southeast 362 417 10,000 -800 Descending Chicago Center
Wed 03:07:06 PM 43.0500 -85.1106 125° Southeast 342 394 9,500 -500 Descending Chicago Center
Wed 03:08:06 PM 43.0028 -85.0172 125° Southeast 319 367 9,000 -500 Descending Chicago Center

Login

Don't have an account? Register now (free) for customized features, flight alerts, and more!